createdAt,value
2017-05-10T00:00:12.948Z,0
2017-05-10T00:00:53.554Z,0
2017-05-10T00:01:34.145Z,0
2017-05-10T00:02:14.724Z,0
2017-05-10T00:02:55.338Z,0
2017-05-10T00:03:35.925Z,0
2017-05-10T00:04:16.522Z,0
2017-05-10T00:04:57.109Z,0
2017-05-10T00:05:37.688Z,0
2017-05-10T00:06:18.238Z,0
2017-05-10T00:06:58.874Z,0
2017-05-10T00:07:39.474Z,0
2017-05-10T00:08:20.068Z,0
2017-05-10T00:09:00.643Z,0
2017-05-10T00:09:41.224Z,0
2017-05-10T00:10:21.785Z,0
2017-05-10T00:11:02.380Z,0
2017-05-10T00:11:42.959Z,0
2017-05-10T00:12:23.604Z,0
2017-05-10T00:13:04.177Z,0
2017-05-10T00:13:44.748Z,0
2017-05-10T00:14:25.356Z,0
2017-05-10T00:15:05.953Z,0
2017-05-10T00:15:46.529Z,0
2017-05-10T00:16:27.131Z,0
2017-05-10T00:17:07.771Z,0
2017-05-10T00:17:48.322Z,0
2017-05-10T00:18:28.907Z,0
2017-05-10T00:19:09.499Z,0
2017-05-10T00:19:50.071Z,0
2017-05-10T00:20:30.665Z,0
2017-05-10T00:21:11.254Z,0
2017-05-10T00:21:51.859Z,0
2017-05-10T00:22:32.466Z,0
2017-05-10T00:23:13.069Z,0
2017-05-10T00:23:53.675Z,0
2017-05-10T00:24:34.242Z,0
2017-05-10T00:25:14.879Z,0
2017-05-10T00:25:55.467Z,0
2017-05-10T00:26:36.023Z,0
2017-05-10T00:27:16.614Z,0
2017-05-10T00:27:57.186Z,0
2017-05-10T00:28:37.749Z,0
2017-05-10T00:29:18.340Z,0
2017-05-10T00:29:58.938Z,0
2017-05-10T00:30:39.521Z,0
2017-05-10T00:31:20.101Z,0
2017-05-10T00:32:00.675Z,0
2017-05-10T00:32:41.260Z,0
2017-05-10T00:33:21.888Z,0
2017-05-10T00:34:02.472Z,0
2017-05-10T00:34:43.062Z,0
2017-05-10T00:35:23.638Z,0
2017-05-10T00:36:04.272Z,0
2017-05-10T00:36:44.856Z,0
2017-05-10T00:37:25.429Z,0
2017-05-10T00:38:06.024Z,0
2017-05-10T00:38:46.608Z,0
2017-05-10T00:39:27.176Z,0
2017-05-10T00:40:07.792Z,0
2017-05-10T00:40:48.371Z,0
2017-05-10T00:41:28.944Z,0
2017-05-10T00:42:09.536Z,0
2017-05-10T00:42:50.094Z,0
2017-05-10T00:43:30.675Z,0
2017-05-10T00:44:11.272Z,0
2017-05-10T00:44:51.882Z,0
2017-05-10T00:45:32.420Z,0
2017-05-10T00:46:12.989Z,0
2017-05-10T00:46:53.559Z,0
2017-05-10T00:47:34.173Z,0
2017-05-10T00:48:14.788Z,0
2017-05-10T00:48:55.340Z,0
2017-05-10T00:49:35.938Z,0
2017-05-10T00:50:16.519Z,0
2017-05-10T00:50:57.116Z,0
2017-05-10T00:51:37.745Z,0
2017-05-10T00:52:18.322Z,0
2017-05-10T00:52:58.892Z,0
2017-05-10T00:53:39.483Z,0
2017-05-10T00:54:20.080Z,0
2017-05-10T00:55:00.661Z,0
2017-05-10T00:55:41.290Z,0
2017-05-10T00:56:21.874Z,0
2017-05-10T00:57:02.469Z,0
2017-05-10T00:57:43.114Z,0
2017-05-10T00:58:23.716Z,0
2017-05-10T00:59:07.297Z,0
2017-05-10T00:59:47.870Z,0
2017-05-10T01:00:28.523Z,0
2017-05-10T01:01:09.132Z,0
2017-05-10T01:01:49.723Z,0
2017-05-10T01:02:30.297Z,0
2017-05-10T01:03:10.877Z,0
2017-05-10T01:03:51.500Z,0
2017-05-10T01:04:32.077Z,0
2017-05-10T01:05:12.661Z,0
2017-05-10T01:05:53.241Z,0
2017-05-10T01:06:33.836Z,0
2017-05-10T01:07:14.472Z,0
2017-05-10T01:07:55.015Z,0
2017-05-10T01:08:35.597Z,0
2017-05-10T01:09:16.204Z,0
2017-05-10T01:09:56.787Z,0
2017-05-10T01:10:37.434Z,0
2017-05-10T01:11:18.001Z,0
2017-05-10T01:11:58.558Z,0
2017-05-10T01:12:39.137Z,0
2017-05-10T01:13:19.717Z,0
2017-05-10T01:14:00.309Z,0
2017-05-10T01:14:40.887Z,0
2017-05-10T01:15:21.450Z,0
2017-05-10T01:16:02.061Z,0
2017-05-10T01:16:42.665Z,0
2017-05-10T01:17:23.244Z,0
2017-05-10T01:18:03.818Z,0
2017-05-10T01:18:44.382Z,0
2017-05-10T01:19:25.082Z,0
2017-05-10T01:20:05.679Z,0
2017-05-10T01:20:46.353Z,0
2017-05-10T01:21:26.946Z,0
2017-05-10T01:22:07.513Z,0
2017-05-10T01:22:48.102Z,0
2017-05-10T01:23:28.775Z,0
2017-05-10T01:24:09.354Z,0
2017-05-10T01:24:49.982Z,0
2017-05-10T01:25:30.561Z,0
2017-05-10T01:26:11.242Z,0
2017-05-10T01:26:51.842Z,0
2017-05-10T01:27:32.412Z,0
2017-05-10T01:28:13.000Z,0
2017-05-10T01:28:53.580Z,0
2017-05-10T01:29:34.306Z,0
2017-05-10T01:30:14.903Z,0
2017-05-10T01:30:55.483Z,0
2017-05-10T01:31:36.154Z,0
2017-05-10T01:32:16.723Z,0
2017-05-10T01:32:57.298Z,0
2017-05-10T01:33:37.884Z,0
2017-05-10T01:34:18.496Z,0
2017-05-10T01:34:59.131Z,0
2017-05-10T01:35:39.704Z,0
2017-05-10T01:36:20.272Z,0
2017-05-10T01:37:00.911Z,0
2017-05-10T01:37:41.498Z,0
2017-05-10T01:38:22.170Z,0
2017-05-10T01:39:02.744Z,0
2017-05-10T01:39:43.373Z,0
2017-05-10T01:40:23.969Z,0
2017-05-10T01:41:04.560Z,0
2017-05-10T01:41:45.198Z,0
2017-05-10T01:42:25.792Z,0
2017-05-10T01:43:06.355Z,0
2017-05-10T01:43:46.978Z,0
2017-05-10T01:44:27.564Z,0
2017-05-10T01:45:08.286Z,0
2017-05-10T01:45:48.995Z,0
2017-05-10T01:46:29.593Z,0
2017-05-10T01:47:10.346Z,0
2017-05-10T01:47:50.998Z,0
2017-05-10T01:48:31.586Z,0
2017-05-10T01:49:12.183Z,0
2017-05-10T01:49:52.751Z,0
2017-05-10T01:50:33.323Z,0
2017-05-10T01:51:13.931Z,0
2017-05-10T01:51:54.598Z,0
2017-05-10T01:52:35.281Z,0
2017-05-10T01:53:15.860Z,0
2017-05-10T01:53:56.511Z,0
2017-05-10T01:54:37.105Z,0
2017-05-10T01:55:17.924Z,0
2017-05-10T01:55:58.510Z,0
2017-05-10T01:56:39.088Z,0
2017-05-10T01:57:19.673Z,0
2017-05-10T01:58:00.290Z,0
2017-05-10T01:58:40.883Z,0
2017-05-10T01:59:21.523Z,0
2017-05-10T02:00:02.099Z,0
2017-05-10T02:00:42.692Z,0
2017-05-10T02:01:23.261Z,0
2017-05-10T02:02:03.845Z,0
2017-05-10T02:02:44.414Z,0
2017-05-10T02:03:25.030Z,0
2017-05-10T02:04:05.617Z,0
2017-05-10T02:04:46.203Z,0
2017-05-10T02:05:26.765Z,0
2017-05-10T02:06:07.339Z,0
2017-05-10T02:06:47.905Z,0
2017-05-10T02:07:28.488Z,0
2017-05-10T02:08:09.070Z,0
2017-05-10T02:08:49.668Z,0
2017-05-10T02:09:30.253Z,0
2017-05-10T02:10:10.849Z,0
2017-05-10T02:10:51.427Z,0
2017-05-10T02:11:32.010Z,0
2017-05-10T02:12:12.578Z,0
2017-05-10T02:12:53.182Z,0
2017-05-10T02:13:33.752Z,0
2017-05-10T02:14:14.318Z,0
2017-05-10T02:14:54.887Z,0
2017-05-10T02:15:35.478Z,0
2017-05-10T02:16:16.089Z,0
2017-05-10T02:16:56.694Z,0
2017-05-10T02:17:37.384Z,0
2017-05-10T02:18:17.939Z,0
2017-05-10T02:18:58.596Z,0
2017-05-10T02:19:39.207Z,0
2017-05-10T02:20:19.821Z,0
2017-05-10T02:21:00.393Z,0
2017-05-10T02:21:40.988Z,0
2017-05-10T02:22:21.562Z,0
2017-05-10T02:23:02.148Z,0
2017-05-10T02:23:42.720Z,0
2017-05-10T02:24:23.319Z,0
2017-05-10T02:25:03.882Z,0
2017-05-10T02:25:44.473Z,0
2017-05-10T02:26:25.037Z,0
2017-05-10T02:27:05.628Z,0
2017-05-10T02:27:46.263Z,0
2017-05-10T02:28:26.886Z,0
2017-05-10T02:29:07.741Z,0
2017-05-10T02:29:48.449Z,0
2017-05-10T02:30:29.052Z,0
2017-05-10T02:31:09.621Z,0
2017-05-10T02:31:50.212Z,0
2017-05-10T02:32:30.785Z,0
2017-05-10T02:33:11.384Z,0
2017-05-10T02:33:51.970Z,0
2017-05-10T02:34:32.544Z,0
2017-05-10T02:35:13.118Z,0
2017-05-10T02:35:53.685Z,0
2017-05-10T02:36:34.856Z,0
2017-05-10T02:37:15.635Z,0
2017-05-10T02:37:56.222Z,0
2017-05-10T02:38:36.822Z,0
2017-05-10T02:39:17.407Z,0
2017-05-10T02:39:58.009Z,0
2017-05-10T02:40:38.583Z,0
2017-05-10T02:41:19.164Z,0
2017-05-10T02:41:59.730Z,0
2017-05-10T02:42:40.315Z,0
2017-05-10T02:43:20.907Z,0
2017-05-10T02:44:01.500Z,0
2017-05-10T02:44:42.057Z,0
2017-05-10T02:45:22.642Z,0
2017-05-10T02:46:03.222Z,0
2017-05-10T02:46:43.798Z,0
2017-05-10T02:47:24.392Z,0
2017-05-10T02:48:04.959Z,0
2017-05-10T02:48:45.523Z,0
2017-05-10T02:49:26.103Z,0
2017-05-10T02:50:06.675Z,0
2017-05-10T02:50:47.262Z,0
2017-05-10T02:51:27.838Z,0
2017-05-10T02:52:08.456Z,0
2017-05-10T02:52:49.025Z,0
2017-05-10T02:53:29.595Z,0
2017-05-10T02:54:10.197Z,0
2017-05-10T02:54:50.774Z,0
2017-05-10T02:55:31.347Z,0
2017-05-10T02:56:11.944Z,0
2017-05-10T02:56:52.514Z,0
2017-05-10T02:57:33.079Z,0
2017-05-10T02:58:13.650Z,0
2017-05-10T02:58:54.229Z,0
2017-05-10T02:59:34.858Z,0
2017-05-10T03:00:15.434Z,0
2017-05-10T03:00:56.003Z,0
2017-05-10T03:01:36.584Z,0
2017-05-10T03:02:17.175Z,0
2017-05-10T03:02:57.742Z,0
2017-05-10T03:03:38.323Z,0
2017-05-10T03:04:18.892Z,0
2017-05-10T03:04:59.470Z,0
2017-05-10T03:05:40.063Z,0
2017-05-10T03:06:20.654Z,0
2017-05-10T03:07:01.236Z,0
2017-05-10T03:07:41.842Z,0
2017-05-10T03:08:22.419Z,0
2017-05-10T03:09:03.014Z,0
2017-05-10T03:09:43.612Z,0
2017-05-10T03:10:24.232Z,0
2017-05-10T03:11:04.815Z,0
2017-05-10T03:11:45.379Z,0
2017-05-10T03:12:25.958Z,0
2017-05-10T03:13:06.532Z,0
2017-05-10T03:13:47.122Z,0
2017-05-10T03:14:27.682Z,0
2017-05-10T03:15:08.258Z,0
2017-05-10T03:15:48.869Z,0
2017-05-10T03:16:29.450Z,0
2017-05-10T03:17:10.022Z,0
2017-05-10T03:17:50.585Z,0
2017-05-10T03:18:31.172Z,0
2017-05-10T03:19:11.734Z,0
2017-05-10T03:19:52.330Z,0
2017-05-10T03:20:32.927Z,0
2017-05-10T03:21:13.512Z,0
2017-05-10T03:21:54.102Z,0
2017-05-10T03:22:34.697Z,0
2017-05-10T03:23:15.278Z,0
2017-05-10T03:23:55.843Z,0
2017-05-10T03:24:36.456Z,0
2017-05-10T03:25:17.045Z,0
2017-05-10T03:25:57.628Z,0
2017-05-10T03:26:38.225Z,0
2017-05-10T03:27:18.817Z,0
2017-05-10T03:27:59.396Z,0
2017-05-10T03:28:40.028Z,0
2017-05-10T03:29:20.616Z,0
2017-05-10T03:30:01.260Z,0
2017-05-10T03:30:41.837Z,0
2017-05-10T03:31:22.410Z,0
2017-05-10T03:32:03.010Z,0
2017-05-10T03:32:43.589Z,0
2017-05-10T03:33:24.193Z,0
2017-05-10T03:34:04.766Z,0
2017-05-10T03:34:45.333Z,0
2017-05-10T03:35:25.912Z,0
2017-05-10T03:36:06.478Z,0
2017-05-10T03:36:47.054Z,0
2017-05-10T03:37:27.622Z,0
2017-05-10T03:38:08.227Z,0
2017-05-10T03:38:48.860Z,0
2017-05-10T03:39:29.422Z,0
2017-05-10T03:40:10.019Z,0
2017-05-10T03:40:50.607Z,0
2017-05-10T03:41:31.176Z,0
2017-05-10T03:42:11.751Z,0
2017-05-10T03:42:52.338Z,0
2017-05-10T03:43:32.929Z,0
2017-05-10T03:44:13.485Z,5
2017-05-10T03:44:54.110Z,5
2017-05-10T03:45:34.718Z,5
2017-05-10T03:46:15.301Z,5
2017-05-10T03:46:55.930Z,5
2017-05-10T03:47:36.499Z,5
2017-05-10T03:48:17.076Z,5
2017-05-10T03:48:58.313Z,5
2017-05-10T03:49:38.884Z,5
2017-05-10T03:50:19.510Z,5
2017-05-10T03:51:00.036Z,5
2017-05-10T03:51:40.630Z,5
2017-05-10T03:52:21.200Z,5
2017-05-10T03:53:01.816Z,5
2017-05-10T03:53:42.384Z,5
2017-05-10T03:54:22.961Z,5
2017-05-10T03:55:03.541Z,5
2017-05-10T03:55:44.124Z,5
2017-05-10T03:56:24.702Z,5
2017-05-10T03:57:05.327Z,5
2017-05-10T03:57:45.894Z,5
2017-05-10T03:58:26.482Z,10
2017-05-10T03:59:07.060Z,10
2017-05-10T03:59:47.631Z,10
2017-05-10T04:00:28.197Z,10
2017-05-10T04:01:08.778Z,10
2017-05-10T04:01:49.385Z,10
2017-05-10T04:02:29.958Z,10
2017-05-10T04:03:10.535Z,10
2017-05-10T04:03:51.126Z,10
2017-05-10T04:04:31.717Z,10
2017-05-10T04:05:12.311Z,10
2017-05-10T04:05:52.880Z,10
2017-05-10T04:06:33.486Z,10
2017-05-10T04:07:14.061Z,10
2017-05-10T04:07:54.647Z,10
2017-05-10T04:08:35.230Z,10
2017-05-10T04:09:15.802Z,10
2017-05-10T04:09:56.390Z,10
2017-05-10T04:10:36.969Z,10
2017-05-10T04:11:17.541Z,10
2017-05-10T04:11:58.167Z,10
2017-05-10T04:12:38.739Z,10
2017-05-10T04:13:19.337Z,10
2017-05-10T04:13:59.935Z,10
2017-05-10T04:14:40.511Z,10
2017-05-10T04:15:21.091Z,10
2017-05-10T04:16:01.663Z,10
2017-05-10T04:16:42.237Z,10
2017-05-10T04:17:22.825Z,10
2017-05-10T04:18:03.406Z,10
2017-05-10T04:18:43.990Z,10
2017-05-10T04:19:24.559Z,10
2017-05-10T04:20:05.139Z,15
2017-05-10T04:20:45.704Z,15
2017-05-10T04:21:26.272Z,15
2017-05-10T04:22:06.853Z,15
2017-05-10T04:22:47.424Z,20
2017-05-10T04:23:27.991Z,20
2017-05-10T04:24:08.589Z,20
2017-05-10T04:24:49.158Z,20
2017-05-10T04:25:29.741Z,20
2017-05-10T04:26:10.327Z,20
2017-05-10T04:26:50.903Z,20
2017-05-10T04:27:31.487Z,20
2017-05-10T04:28:12.066Z,20
2017-05-10T04:28:52.633Z,20
2017-05-10T04:29:33.227Z,20
2017-05-10T04:30:13.794Z,20
2017-05-10T04:30:54.378Z,20
2017-05-10T04:31:34.996Z,25
2017-05-10T04:32:15.582Z,25
2017-05-10T04:32:56.156Z,25
2017-05-10T04:33:36.741Z,25
2017-05-10T04:34:17.314Z,25
2017-05-10T04:34:57.882Z,25
2017-05-10T04:35:38.467Z,25
2017-05-10T04:36:19.085Z,25
2017-05-10T04:36:59.695Z,25
2017-05-10T04:37:40.255Z,25
2017-05-10T04:38:20.838Z,25
2017-05-10T04:39:01.471Z,30
2017-05-10T04:39:42.045Z,30
2017-05-10T04:40:22.612Z,30
2017-05-10T04:41:03.193Z,30
2017-05-10T04:41:43.765Z,30
2017-05-10T04:42:24.351Z,30
2017-05-10T04:43:04.932Z,30
2017-05-10T04:43:45.501Z,35
2017-05-10T04:44:26.067Z,35
2017-05-10T04:45:06.657Z,35
2017-05-10T04:45:47.254Z,35
2017-05-10T04:46:27.822Z,35
2017-05-10T04:47:08.420Z,35
2017-05-10T04:47:49.030Z,35
2017-05-10T04:48:29.615Z,40
2017-05-10T04:49:10.222Z,40
2017-05-10T04:49:50.812Z,40
2017-05-10T04:50:31.441Z,40
2017-05-10T04:51:12.008Z,40
2017-05-10T04:51:52.573Z,40
2017-05-10T04:52:33.157Z,40
2017-05-10T04:53:13.755Z,40
2017-05-10T04:53:54.352Z,40
2017-05-10T04:54:34.968Z,40
2017-05-10T04:55:15.544Z,35
2017-05-10T04:55:56.134Z,30
2017-05-10T04:56:36.724Z,25
2017-05-10T04:57:17.303Z,20
2017-05-10T04:57:57.912Z,20
2017-05-10T04:58:38.484Z,20
2017-05-10T04:59:19.054Z,20
2017-05-10T04:59:59.629Z,15
2017-05-10T05:00:40.200Z,15
2017-05-10T05:01:20.834Z,15
2017-05-10T05:02:01.404Z,15
2017-05-10T05:02:41.987Z,10
2017-05-10T05:03:22.566Z,10
2017-05-10T05:04:03.149Z,15
2017-05-10T05:04:43.764Z,15
2017-05-10T05:05:24.347Z,15
2017-05-10T05:06:04.935Z,15
2017-05-10T05:06:45.498Z,15
2017-05-10T05:07:26.074Z,15
2017-05-10T05:08:06.829Z,15
2017-05-10T05:08:47.754Z,15
2017-05-10T05:09:28.349Z,20
2017-05-10T05:10:09.086Z,20
2017-05-10T05:10:49.723Z,20
2017-05-10T05:11:30.287Z,20
2017-05-10T05:12:10.904Z,25
2017-05-10T05:12:51.740Z,25
2017-05-10T05:13:32.312Z,30
2017-05-10T05:14:12.887Z,35
2017-05-10T05:14:53.468Z,40
2017-05-10T05:15:34.094Z,40
2017-05-10T05:16:14.951Z,45
2017-05-10T05:16:55.955Z,45
2017-05-10T05:17:36.564Z,50
2017-05-10T05:18:17.186Z,55
2017-05-10T05:18:57.787Z,60
2017-05-10T05:19:38.505Z,60
2017-05-10T05:20:19.227Z,65
2017-05-10T05:20:59.920Z,70
2017-05-10T05:21:40.887Z,70
2017-05-10T05:22:21.563Z,75
2017-05-10T05:23:02.240Z,75
2017-05-10T05:23:42.964Z,75
2017-05-10T05:24:23.736Z,75
2017-05-10T05:25:04.384Z,70
2017-05-10T05:25:45.149Z,65
2017-05-10T05:26:26.668Z,60
2017-05-10T05:27:07.289Z,55
2017-05-10T05:27:47.990Z,55
2017-05-10T05:28:28.774Z,55
2017-05-10T05:29:09.359Z,50
2017-05-10T05:29:49.935Z,50
2017-05-10T05:30:30.531Z,50
2017-05-10T05:31:11.131Z,50
2017-05-10T05:31:51.707Z,50
2017-05-10T05:32:32.294Z,50
2017-05-10T05:33:12.862Z,50
2017-05-10T05:33:53.660Z,50
2017-05-10T05:34:34.839Z,50
2017-05-10T05:35:15.728Z,50
2017-05-10T05:35:56.782Z,55
2017-05-10T05:36:37.932Z,55
2017-05-10T05:37:19.134Z,60
2017-05-10T05:37:59.729Z,65
2017-05-10T05:38:42.424Z,65
2017-05-10T05:39:24.765Z,70
2017-05-10T05:40:05.346Z,70
2017-05-10T05:40:46.565Z,75
2017-05-10T05:41:27.814Z,75
2017-05-10T05:42:09.000Z,80
2017-05-10T05:42:49.583Z,85
2017-05-10T05:43:30.163Z,95
2017-05-10T05:44:10.769Z,110
2017-05-10T05:44:51.379Z,125
2017-05-10T05:45:31.967Z,140
2017-05-10T05:46:12.579Z,145
2017-05-10T05:46:53.149Z,155
2017-05-10T05:47:33.751Z,160
2017-05-10T05:48:14.347Z,180
2017-05-10T05:48:54.925Z,185
2017-05-10T05:49:35.493Z,185
2017-05-10T05:50:16.075Z,185
2017-05-10T05:50:56.670Z,190
2017-05-10T05:51:37.281Z,195
2017-05-10T05:52:17.866Z,195
2017-05-10T05:52:58.464Z,200
2017-05-10T05:53:39.079Z,215
2017-05-10T05:54:19.666Z,230
2017-05-10T05:55:00.284Z,200
2017-05-10T05:55:40.859Z,220
2017-05-10T05:56:21.438Z,235
2017-05-10T05:57:02.049Z,245
2017-05-10T05:57:42.647Z,240
2017-05-10T05:58:23.241Z,250
2017-05-10T05:59:03.810Z,265
2017-05-10T05:59:44.394Z,290
2017-05-10T06:00:24.995Z,295
2017-05-10T06:01:05.607Z,300
2017-05-10T06:01:46.199Z,290
2017-05-10T06:02:26.773Z,275
2017-05-10T06:03:07.366Z,295
2017-05-10T06:03:47.956Z,305
2017-05-10T06:04:28.542Z,300
2017-05-10T06:05:09.121Z,295
2017-05-10T06:05:49.712Z,260
2017-05-10T06:06:30.980Z,245
2017-05-10T06:07:11.659Z,215
2017-05-10T06:07:52.596Z,185
2017-05-10T06:08:33.235Z,160
2017-05-10T06:09:13.811Z,140
2017-05-10T06:09:54.411Z,130
2017-05-10T06:10:35.023Z,125
2017-05-10T06:11:15.630Z,120
2017-05-10T06:11:56.210Z,120
2017-05-10T06:12:36.829Z,120
2017-05-10T06:13:17.403Z,120
2017-05-10T06:13:57.965Z,130
2017-05-10T06:14:38.540Z,140
2017-05-10T06:15:19.141Z,150
2017-05-10T06:15:59.737Z,155
2017-05-10T06:16:40.312Z,145
2017-05-10T06:17:20.930Z,140
2017-05-10T06:18:01.509Z,140
2017-05-10T06:18:42.090Z,135
2017-05-10T06:19:22.734Z,130
2017-05-10T06:20:03.363Z,120
2017-05-10T06:20:43.938Z,115
2017-05-10T06:21:24.514Z,115
2017-05-10T06:22:05.124Z,115
2017-05-10T06:22:45.719Z,120
2017-05-10T06:23:26.297Z,130
2017-05-10T06:24:06.910Z,140
2017-05-10T06:24:47.461Z,160
2017-05-10T06:25:28.076Z,185
2017-05-10T06:26:08.696Z,205
2017-05-10T06:26:49.254Z,235
2017-05-10T06:27:29.881Z,255
2017-05-10T06:28:10.482Z,250
2017-05-10T06:28:51.076Z,250
2017-05-10T06:29:31.658Z,250
2017-05-10T06:30:12.222Z,280
2017-05-10T06:30:52.881Z,335
2017-05-10T06:31:33.484Z,355
2017-05-10T06:32:14.080Z,430
2017-05-10T06:32:54.671Z,475
2017-05-10T06:33:35.253Z,560
2017-05-10T06:34:15.862Z,610
2017-05-10T06:34:56.443Z,670
2017-05-10T06:35:37.009Z,675
2017-05-10T06:36:17.611Z,650
2017-05-10T06:36:58.191Z,810
2017-05-10T06:37:38.786Z,905
2017-05-10T06:38:19.364Z,630
2017-05-10T06:38:59.963Z,510
2017-05-10T06:39:40.553Z,470
2017-05-10T06:40:21.168Z,390
2017-05-10T06:41:01.745Z,365
2017-05-10T06:41:42.307Z,485
2017-05-10T06:42:22.880Z,600
2017-05-10T06:43:03.481Z,580
2017-05-10T06:43:44.069Z,685
2017-05-10T06:44:24.672Z,760
2017-05-10T06:45:05.253Z,780
2017-05-10T06:45:45.822Z,700
2017-05-10T06:46:26.409Z,585
2017-05-10T06:47:06.997Z,495
2017-05-10T06:47:47.564Z,475
2017-05-10T06:48:28.136Z,490
2017-05-10T06:49:08.708Z,455
2017-05-10T06:49:49.279Z,420
2017-05-10T06:50:29.872Z,405
2017-05-10T06:51:10.480Z,410
2017-05-10T06:51:51.051Z,225
2017-05-10T06:52:31.640Z,290
2017-05-10T06:53:12.222Z,215
2017-05-10T06:53:52.790Z,215
2017-05-10T06:54:33.418Z,210
2017-05-10T06:55:14.019Z,350
2017-05-10T06:55:54.607Z,395
2017-05-10T06:56:35.202Z,305
2017-05-10T06:57:15.788Z,170
2017-05-10T06:57:56.366Z,165
2017-05-10T06:58:36.946Z,230
2017-05-10T06:59:17.529Z,350
2017-05-10T06:59:58.099Z,305
2017-05-10T07:00:38.672Z,345
2017-05-10T07:01:19.263Z,340
2017-05-10T07:01:59.834Z,240
2017-05-10T07:02:40.424Z,275
2017-05-10T07:03:21.016Z,350
2017-05-10T07:04:01.602Z,350
2017-05-10T07:04:42.186Z,480
2017-05-10T07:05:22.790Z,260
2017-05-10T07:06:03.369Z,520
2017-05-10T07:06:44.000Z,570
2017-05-10T07:07:24.587Z,360
2017-05-10T07:08:05.183Z,345
2017-05-10T07:08:45.826Z,305
2017-05-10T07:09:26.409Z,275
2017-05-10T07:10:07.002Z,255
2017-05-10T07:10:47.591Z,290
2017-05-10T07:11:28.176Z,285
2017-05-10T07:12:08.755Z,345
2017-05-10T07:12:49.346Z,385
2017-05-10T07:13:30.110Z,355
2017-05-10T07:14:10.679Z,380
2017-05-10T07:14:51.277Z,230
2017-05-10T07:15:31.891Z,215
2017-05-10T07:16:12.484Z,230
2017-05-10T07:16:53.071Z,245
2017-05-10T07:17:33.648Z,345
2017-05-10T07:18:14.255Z,290
2017-05-10T07:18:54.847Z,255
2017-05-10T07:19:35.443Z,215
2017-05-10T07:20:16.051Z,190
2017-05-10T07:20:56.630Z,180
2017-05-10T07:21:37.254Z,200
2017-05-10T07:22:17.847Z,275
2017-05-10T07:22:58.560Z,280
2017-05-10T07:23:39.160Z,215
2017-05-10T07:24:19.743Z,155
2017-05-10T07:25:00.387Z,120
2017-05-10T07:25:41.095Z,110
2017-05-10T07:26:21.664Z,110
2017-05-10T07:27:02.272Z,125
2017-05-10T07:27:42.861Z,160
2017-05-10T07:28:23.498Z,260
2017-05-10T07:29:04.148Z,310
2017-05-10T07:29:44.737Z,295
2017-05-10T07:30:25.355Z,250
2017-05-10T07:31:06.022Z,350
2017-05-10T07:31:46.654Z,260
2017-05-10T07:32:27.243Z,230
2017-05-10T07:33:07.896Z,190
2017-05-10T07:33:48.444Z,175
2017-05-10T07:34:29.068Z,165
2017-05-10T07:35:09.709Z,190
2017-05-10T07:35:50.295Z,160
2017-05-10T07:36:30.897Z,160
2017-05-10T07:37:11.513Z,200
2017-05-10T07:37:52.123Z,255
2017-05-10T07:38:32.726Z,255
2017-05-10T07:39:13.330Z,185
2017-05-10T07:39:53.935Z,155
2017-05-10T07:40:34.568Z,185
2017-05-10T07:41:15.180Z,160
2017-05-10T07:41:55.764Z,155
2017-05-10T07:42:36.494Z,155
2017-05-10T07:43:17.116Z,135
2017-05-10T07:43:57.914Z,120
2017-05-10T07:44:38.555Z,105
2017-05-10T07:45:19.146Z,95
2017-05-10T07:45:59.755Z,105
2017-05-10T07:46:40.316Z,220
2017-05-10T07:47:20.917Z,280
2017-05-10T07:48:01.520Z,270
2017-05-10T07:48:42.097Z,395
2017-05-10T07:49:22.720Z,375
2017-05-10T07:50:03.287Z,195
2017-05-10T07:50:43.899Z,240
2017-05-10T07:51:24.467Z,130
2017-05-10T07:52:05.143Z,105
2017-05-10T07:52:45.708Z,90
2017-05-10T07:53:26.299Z,95
2017-05-10T07:54:06.875Z,90
2017-05-10T07:54:47.448Z,100
2017-05-10T07:55:28.044Z,125
2017-05-10T07:56:08.653Z,130
2017-05-10T07:56:49.232Z,125
2017-05-10T07:57:29.838Z,125
2017-05-10T07:58:10.434Z,115
2017-05-10T07:58:51.026Z,105
2017-05-10T07:59:31.614Z,95
2017-05-10T08:00:12.185Z,90
2017-05-10T08:00:52.754Z,90
2017-05-10T08:01:33.338Z,90
2017-05-10T08:02:13.998Z,95
2017-05-10T08:02:54.569Z,95
2017-05-10T08:03:35.144Z,100
2017-05-10T08:04:15.734Z,100
2017-05-10T08:04:56.409Z,95
2017-05-10T08:05:37.051Z,90
2017-05-10T08:06:17.652Z,90
2017-05-10T08:06:58.252Z,100
2017-05-10T08:07:38.840Z,115
2017-05-10T08:08:19.448Z,120
2017-05-10T08:09:00.024Z,120
2017-05-10T08:09:40.646Z,115
2017-05-10T08:10:21.205Z,100
2017-05-10T08:11:01.800Z,90
2017-05-10T08:11:42.407Z,85
2017-05-10T08:12:23.013Z,75
2017-05-10T08:13:03.666Z,75
2017-05-10T08:13:44.234Z,75
2017-05-10T08:14:24.828Z,70
2017-05-10T08:15:05.414Z,65
2017-05-10T08:15:46.014Z,65
2017-05-10T08:16:26.597Z,60
2017-05-10T08:17:07.231Z,60
2017-05-10T08:17:47.781Z,55
2017-05-10T08:18:28.401Z,55
2017-05-10T08:19:08.938Z,55
2017-05-10T08:19:49.520Z,65
2017-05-10T08:20:30.117Z,70
2017-05-10T08:21:10.729Z,75
2017-05-10T08:21:51.297Z,80
2017-05-10T08:22:31.883Z,85
2017-05-10T08:23:12.467Z,90
2017-05-10T08:23:53.148Z,90
2017-05-10T08:24:33.732Z,85
2017-05-10T08:25:14.319Z,85
2017-05-10T08:25:54.942Z,75
2017-05-10T08:26:35.543Z,75
2017-05-10T08:27:16.168Z,75
2017-05-10T08:27:56.760Z,70
2017-05-10T08:28:37.392Z,75
2017-05-10T08:29:17.989Z,80
2017-05-10T08:29:58.564Z,95
2017-05-10T08:30:39.167Z,90
2017-05-10T08:31:19.799Z,90
2017-05-10T08:32:00.428Z,85
2017-05-10T08:32:41.026Z,75
2017-05-10T08:33:21.617Z,65
2017-05-10T08:34:02.185Z,60
2017-05-10T08:34:42.801Z,55
2017-05-10T08:35:23.414Z,50
2017-05-10T08:36:04.055Z,50
2017-05-10T08:36:44.625Z,50
2017-05-10T08:37:25.246Z,55
2017-05-10T08:38:05.842Z,55
2017-05-10T08:38:46.472Z,60
2017-05-10T08:39:27.110Z,65
2017-05-10T08:40:07.785Z,65
2017-05-10T08:40:48.416Z,65
2017-05-10T08:41:29.112Z,65
2017-05-10T08:42:09.739Z,65
2017-05-10T08:42:50.353Z,60
2017-05-10T08:43:30.940Z,60
2017-05-10T08:44:11.504Z,60
2017-05-10T08:44:52.072Z,60
2017-05-10T08:45:32.681Z,65
2017-05-10T08:46:13.246Z,70
2017-05-10T08:46:53.863Z,75
2017-05-10T08:47:34.490Z,85
2017-05-10T08:48:15.081Z,115
2017-05-10T08:48:55.653Z,130
2017-05-10T08:49:36.264Z,165
2017-05-10T08:50:16.887Z,200
2017-05-10T08:50:57.444Z,190
2017-05-10T08:51:38.153Z,205
2017-05-10T08:52:18.695Z,205
2017-05-10T08:52:59.291Z,200
2017-05-10T08:53:39.900Z,185
2017-05-10T08:54:20.465Z,175
2017-05-10T08:55:01.078Z,165
2017-05-10T08:55:41.678Z,145
2017-05-10T08:56:22.336Z,130
2017-05-10T08:57:02.884Z,120
2017-05-10T08:57:43.487Z,105
2017-05-10T08:58:24.061Z,100
2017-05-10T08:59:04.677Z,100
2017-05-10T08:59:45.274Z,95
2017-05-10T09:00:25.836Z,95
2017-05-10T09:01:06.432Z,100
2017-05-10T09:01:47.048Z,115
2017-05-10T09:02:27.642Z,125
2017-05-10T09:03:08.227Z,130
2017-05-10T09:03:48.799Z,165
2017-05-10T09:04:29.396Z,140
2017-05-10T09:05:09.967Z,150
2017-05-10T09:05:50.557Z,155
2017-05-10T09:06:31.147Z,155
2017-05-10T09:07:11.839Z,175
2017-05-10T09:07:52.416Z,175
2017-05-10T09:08:32.987Z,170
2017-05-10T09:09:13.559Z,160
2017-05-10T09:09:54.174Z,135
2017-05-10T09:10:34.818Z,130
2017-05-10T09:11:15.395Z,120
2017-05-10T09:11:55.965Z,120
2017-05-10T09:12:36.600Z,125
2017-05-10T09:13:17.172Z,130
2017-05-10T09:13:57.793Z,135
2017-05-10T09:14:38.342Z,135
2017-05-10T09:15:18.927Z,130
2017-05-10T09:15:59.513Z,125
2017-05-10T09:16:40.145Z,125
2017-05-10T09:17:20.745Z,130
2017-05-10T09:18:01.387Z,135
2017-05-10T09:18:42.018Z,135
2017-05-10T09:19:22.668Z,130
2017-05-10T09:20:03.261Z,130
2017-05-10T09:20:43.844Z,135
2017-05-10T09:21:24.447Z,155
2017-05-10T09:22:05.081Z,165
2017-05-10T09:22:45.648Z,155
2017-05-10T09:23:26.219Z,155
2017-05-10T09:24:06.830Z,160
2017-05-10T09:24:47.415Z,160
2017-05-10T09:25:28.035Z,160
2017-05-10T09:26:08.627Z,150
2017-05-10T09:26:49.226Z,140
2017-05-10T09:27:29.838Z,130
2017-05-10T09:28:10.456Z,120
2017-05-10T09:28:51.042Z,105
2017-05-10T09:29:31.696Z,100
2017-05-10T09:30:12.305Z,90
2017-05-10T09:30:52.878Z,85
2017-05-10T09:31:33.448Z,85
2017-05-10T09:32:14.038Z,85
2017-05-10T09:32:54.654Z,80
2017-05-10T09:33:35.306Z,80
2017-05-10T09:34:15.904Z,80
2017-05-10T09:34:56.489Z,80
2017-05-10T09:35:37.066Z,80
2017-05-10T09:36:17.645Z,80
2017-05-10T09:36:58.240Z,85
2017-05-10T09:37:38.864Z,85
2017-05-10T09:38:19.442Z,85
2017-05-10T09:39:00.022Z,85
2017-05-10T09:39:40.790Z,85
2017-05-10T09:40:21.438Z,85
2017-05-10T09:41:02.032Z,80